Skip Navigation Links
NOAA logo - Click to go to the NOAA homepage
NOAA's National Weather Service
Alaska Aviation Weather Unit
  NWS logo - Click to go to the NWS homepage
Left Navbar Graphic     19 AKDT = 03 GMT

   
NOAA is celebrating 200 years of science, service, and stewardship. Visit the NOAA 200th celebration Web site to learn more.
USA.gov is the U.S. Government's official Web portal to all Federal, state and local government Web resources and services.
Facebook
NWS on Facebook

Important Change Regarding the AAWU Web Presence

 

Over the last several months, the AAWU has been working to navigate its webpages to a nationally supported server. Security, as well as other needs, have necessitated the change.  In the process, we have made an effort to enhance the functionality of our website, as well as some of our products. As of June 20, 2017, aawu.arh.noaa.gov will be discontinued. The new AAWU web address is weather.gov/aawu. It is now live and will run in-parallel with the old site until it is discontinued. Please send any feedback or questions regarding the new webpages to nws.ar.aawu.webauthors@noaa.gov.  Thank you for your patience during this time of transition.
AAWU Home :: Display TAF Add Bookmark
METAR PALU 242155Z AUTO 07004KT 10SM CLR 03/01 A2965=

METAR PALU 242255Z AUTO 08002KT 10SM SCT110 04/01 A2962=

METAR PALU 242355Z AUTO 09004KT 10SM FEW110 04/00 A2959=

METAR PALU 250055Z AUTO 09005KT 10SM BKN065 04/00 A2958=

PALU 250154Z AUTO 08007KT 5SM -SHSN FEW008 BKN025 02/00 A2956=

METAR PALU 250155Z AUTO 08008KT 5SM -SHSN SCT008 BKN024 02/00 A2956=

PALU 250214Z AUTO 10002KT 10SM -SHRASN BKN007 BKN024 02/00 A2956=

PALU 250234Z AUTO 05004KT 10SM -RASN OVC006 02/00 A2956=


NOAA's National Weather Service
Alaska Aviation Weather Unit
6930 Sand Lake Road
Anchorage, AK 99502-1845
Disclaimer
Credits
Glossary
Privacy Policy
About Us
Career Opportunities
Contact AAWU Internet Services Site last modified: April, 17th 2012